Time;durP1;ratioP1;P1;durP2;ratioP2;P2;SDS_P1;SDS_P2;PMS_P1;PMS_P2;Temp;Humidity;BMP_temperature;BMP_pressure;BME280_temperature;BME280_humidity;BME280_pressure;Samples;Min_cycle;Max_cycle;Signal;HPM_P1;HPM_P2
2021/07/03 00:02:24;;;;;;;20.20;15.93;;;;;;;13.08;100.00;100853.69;5203280;28;20495;-79
2021/07/03 00:04:54;;;;;;;22.77;17.88;;;;;;;13.10;100.00;100847.44;5203001;28;20064;-80
2021/07/03 00:07:24;;;;;;;20.73;16.17;;;;;;;13.16;100.00;100846.34;5197194;28;20026;-80
2021/07/03 00:09:55;;;;;;;20.25;15.25;;;;;;;13.31;100.00;100853.56;5199729;28;20540;-79
2021/07/03 00:12:25;;;;;;;23.05;16.65;;;;;;;13.10;100.00;100843.97;5198921;28;20513;-79
2021/07/03 00:14:55;;;;;;;24.33;16.90;;;;;;;13.07;100.00;100849.34;5194116;28;20017;-79
2021/07/03 00:17:26;;;;;;;24.42;18.50;;;;;;;13.02;100.00;100848.66;5193314;28;20040;-79
2021/07/03 00:19:56;;;;;;;26.50;20.73;;;;;;;13.06;100.00;100850.28;5196081;28;20033;-79
2021/07/03 00:22:26;;;;;;;31.33;21.38;;;;;;;12.98;100.00;100841.00;5188386;28;20476;-79
2021/07/03 00:24:57;;;;;;;28.42;19.17;;;;;;;13.01;100.00;100846.97;5194044;28;20034;-78
2021/07/03 00:27:27;;;;;;;27.33;18.73;;;;;;;12.89;100.00;100836.97;5190308;28;20368;-79
2021/07/03 00:30:09;;;;;;;23.23;16.95;;;;;;;12.79;100.00;100848.72;5194279;28;20498;-79
2021/07/03 00:32:39;;;;;;;20.98;15.82;;;;;;;12.95;100.00;100844.59;5180965;28;20026;-79
2021/07/03 00:35:10;;;;;;;27.20;15.95;;;;;;;12.98;100.00;100847.09;5196258;28;20032;-79
2021/07/03 00:37:40;;;;;;;20.42;14.73;;;;;;;13.03;100.00;100845.16;5195904;28;20037;-79
2021/07/03 00:40:12;;;;;;;18.95;16.02;;;;;;;12.91;100.00;100846.44;5193251;28;20112;-79
2021/07/03 00:42:42;;;;;;;22.50;17.10;;;;;;;12.91;100.00;100850.88;5190560;28;20037;-79
2021/07/03 00:45:13;;;;;;;26.35;16.98;;;;;;;12.93;100.00;100855.16;5191743;28;20040;-79
2021/07/03 00:47:43;;;;;;;27.63;17.52;;;;;;;13.09;100.00;100850.16;5192415;28;20108;-79
2021/07/03 00:50:14;;;;;;;25.92;18.58;;;;;;;13.15;100.00;100847.25;5190847;28;20048;-79
2021/07/03 00:52:44;;;;;;;30.10;21.13;;;;;;;13.17;100.00;100842.78;5191732;28;20172;-78
2021/07/03 00:55:16;;;;;;;30.02;21.63;;;;;;;13.29;100.00;100847.53;5191980;28;20037;-78
2021/07/03 00:57:47;;;;;;;31.27;22.00;;;;;;;13.27;100.00;100844.13;5193050;28;20025;-79
2021/07/03 01:00:18;;;;;;;33.63;20.30;;;;;;;13.07;100.00;100849.34;5192139;28;20048;-79
2021/07/03 01:02:48;;;;;;;24.77;18.33;;;;;;;12.83;100.00;100852.09;5196490;28;20025;-79
2021/07/03 01:05:19;;;;;;;23.98;15.80;;;;;;;12.83;100.00;100845.06;5199901;28;20112;-78
2021/07/03 01:07:49;;;;;;;25.60;18.15;;;;;;;12.87;100.00;100838.78;5198563;28;20491;-79
2021/07/03 01:10:22;;;;;;;28.05;18.85;;;;;;;12.87;100.00;100838.78;5190972;28;20037;-79
2021/07/03 01:12:53;;;;;;;29.10;19.27;;;;;;;12.91;100.00;100832.50;5186675;28;20029;-79
2021/07/03 01:15:24;;;;;;;31.67;21.90;;;;;;;12.79;100.00;100834.78;5193151;28;20041;-79
2021/07/03 01:17:54;;;;;;;31.88;22.00;;;;;;;12.85;100.00;100837.97;5194666;28;20026;-79
2021/07/03 01:20:25;;;;;;;34.17;21.95;;;;;;;12.71;100.00;100839.47;5195784;28;20092;-79
2021/07/03 01:22:56;;;;;;;36.47;22.05;;;;;;;12.61;100.00;100848.63;5192081;28;20250;-79
2021/07/03 01:25:26;;;;;;;30.60;20.63;;;;;;;12.58;100.00;100840.84;5194512;28;20404;-79
2021/07/03 01:28:05;;;;;;;27.45;19.90;;;;;;;12.51;100.00;100845.50;5197115;28;20041;-80
2021/07/03 01:30:36;;;;;;;23.63;17.70;;;;;;;12.60;100.00;100839.06;5195724;28;20054;-79
2021/07/03 01:33:06;;;;;;;28.02;16.48;;;;;;;12.74;100.00;100837.56;5193779;28;20060;-80
2021/07/03 01:35:38;;;;;;;24.02;16.95;;;;;;;12.80;100.00;100841.72;5195596;28;20396;-80
2021/07/03 01:38:08;;;;;;;27.23;16.02;;;;;;;12.60;100.00;100850.38;5195712;28;20022;-79
2021/07/03 01:40:38;;;;;;;20.77;14.32;;;;;;;12.74;100.00;100836.72;5195104;28;20036;-79
2021/07/03 01:43:09;;;;;;;21.77;15.50;;;;;;;12.41;100.00;100838.03;5195641;28;20033;-79
2021/07/03 01:45:39;;;;;;;18.92;13.75;;;;;;;12.59;100.00;100835.56;5205323;28;20089;-80
2021/07/03 01:48:09;;;;;;;19.30;14.63;;;;;;;12.52;100.00;100831.47;5204098;28;20026;-80
2021/07/03 01:50:39;;;;;;;17.60;14.15;;;;;;;12.63;100.00;100824.03;5204125;28;20060;-79
2021/07/03 01:53:10;;;;;;;21.38;14.40;;;;;;;12.64;100.00;100819.66;5190672;28;20090;-79
2021/07/03 01:55:40;;;;;;;21.27;15.43;;;;;;;12.60;100.00;100820.69;5202226;28;20021;-80
2021/07/03 01:58:22;;;;;;;23.65;16.25;;;;;;;12.50;100.00;100817.56;5201898;28;20022;-79
2021/07/03 02:00:54;;;;;;;28.05;17.23;;;;;;;12.41;100.00;100817.94;5200976;28;20072;-80
2021/07/03 02:03:26;;;;;;;31.60;18.98;;;;;;;12.15;100.00;100812.81;5190261;28;20042;-80
2021/07/03 02:05:56;;;;;;;27.63;17.50;;;;;;;12.27;100.00;100814.16;5198455;28;20037;-80
2021/07/03 02:08:26;;;;;;;28.05;19.17;;;;;;;12.35;100.00;100818.19;5203126;28;20054;-80
2021/07/03 02:10:58;;;;;;;27.10;19.33;;;;;;;12.50;100.00;100820.19;5204313;28;20064;-80
2021/07/03 02:13:30;;;;;;;31.27;18.73;;;;;;;12.49;100.00;100821.09;5204154;28;20048;-80
2021/07/03 02:16:00;;;;;;;31.88;20.30;;;;;;;12.39;100.00;100814.53;5204044;28;20461;-80
2021/07/03 02:18:30;;;;;;;32.08;20.67;;;;;;;12.39;100.00;100817.13;5202344;28;20032;-80
2021/07/03 02:21:01;;;;;;;33.42;20.38;;;;;;;12.23;100.00;100818.66;5200365;28;20021;-80
2021/07/03 02:23:31;;;;;;;28.33;19.80;;;;;;;12.30;100.00;100812.25;5194672;28;20264;-79
2021/07/03 02:26:01;;;;;;;32.25;20.73;;;;;;;12.18;100.00;100806.63;5195958;28;20021;-79
2021/07/03 02:28:32;;;;;;;31.85;19.70;;;;;;;11.88;100.00;100805.16;5196182;28;20133;-79
2021/07/03 02:31:02;;;;;;;24.15;17.92;;;;;;;12.16;100.00;100811.91;5194193;28;20034;-80
2021/07/03 02:33:33;;;;;;;28.15;18.08;;;;;;;12.13;100.00;100814.66;5190640;28;20535;-80
2021/07/03 02:36:03;;;;;;;24.25;17.55;;;;;;;12.21;100.00;100801.25;5194452;28;20420;-80
2021/07/03 02:38:34;;;;;;;25.65;17.15;;;;;;;12.17;100.00;100803.16;5194731;28;20032;-79
2021/07/03 02:41:04;;;;;;;24.38;17.17;;;;;;;12.19;100.00;100803.97;5217688;22;20044;-76
2021/07/03 02:43:35;;;;;;;25.70;16.83;;;;;;;12.11;100.00;100800.75;5212286;28;20395;-78
2021/07/03 02:46:05;;;;;;;23.42;16.83;;;;;;;12.08;100.00;100803.50;5211298;28;20032;-76
2021/07/03 02:48:35;;;;;;;26.00;16.45;;;;;;;12.06;100.00;100805.34;5210305;28;20029;-77
2021/07/03 02:51:06;;;;;;;25.90;16.52;;;;;;;11.94;100.00;100802.34;5193130;28;20490;-76
2021/07/03 02:53:36;;;;;;;19.52;14.95;;;;;;;11.79;100.00;100800.28;5187467;28;20087;-76
2021/07/03 02:56:06;;;;;;;17.33;13.63;;;;;;;12.03;100.00;100801.97;5190417;28;20026;-76
2021/07/03 02:58:37;;;;;;;23.52;14.10;;;;;;;11.72;100.00;100804.88;5193503;28;20029;-77
2021/07/03 03:01:07;;;;;;;19.10;12.85;;;;;;;11.79;100.00;100808.97;5204543;28;20097;-77
2021/07/03 03:03:38;;;;;;;18.15;12.02;;;;;;;11.90;100.00;100798.97;5196726;28;20080;-77
2021/07/03 03:06:12;;;;;;;21.30;12.95;;;;;;;11.92;100.00;100793.69;5184802;28;20493;-78
2021/07/03 03:08:44;;;;;;;21.52;13.00;;;;;;;11.81;100.00;100796.66;5196632;28;20044;-77
2021/07/03 03:11:14;;;;;;;23.00;13.90;;;;;;;11.87;100.00;100792.97;5187671;28;20029;-75
2021/07/03 03:13:44;;;;;;;27.92;15.27;;;;;;;11.86;100.00;100796.50;5187807;28;20029;-76
2021/07/03 03:16:15;;;;;;;25.83;15.02;;;;;;;11.81;100.00;100801.06;5189044;28;20037;-76
2021/07/03 03:18:45;;;;;;;30.70;16.05;;;;;;;11.90;100.00;100798.97;5200005;28;20021;-77
2021/07/03 03:21:15;;;;;;;27.15;16.05;;;;;;;12.02;100.00;100805.50;5202332;28;20022;-77
2021/07/03 03:23:46;;;;;;;29.48;16.88;;;;;;;11.88;100.00;100802.53;5203403;28;20025;-77
2021/07/03 03:26:16;;;;;;;24.65;16.35;;;;;;;12.07;100.00;100801.81;5203426;28;20037;-77
2021/07/03 03:28:46;;;;;;;26.75;15.85;;;;;;;12.24;100.00;100804.63;5198740;28;20022;-77
2021/07/03 03:31:17;;;;;;;23.33;16.02;;;;;;;12.19;100.00;100811.81;5190912;28;20029;-77
2021/07/03 03:33:47;;;;;;;31.58;18.58;;;;;;;12.06;100.00;100809.69;5190729;28;20026;-77
2021/07/03 03:36:17;;;;;;;28.75;17.98;;;;;;;12.21;100.00;100812.63;5191854;28;20041;-76
2021/07/03 03:38:48;;;;;;;29.13;18.23;;;;;;;12.27;100.00;100817.59;5195294;28;20064;-77
2021/07/03 03:41:20;;;;;;;26.02;17.83;;;;;;;12.16;100.00;100811.91;5192018;28;20038;-77
2021/07/03 03:43:52;;;;;;;29.30;18.13;;;;;;;12.09;100.00;100814.84;5195771;28;20506;-77
2021/07/03 03:46:23;;;;;;;25.50;17.10;;;;;;;12.14;100.00;100824.22;5188139;28;20049;-76
2021/07/03 03:48:53;;;;;;;32.42;17.77;;;;;;;12.12;100.00;100820.81;5194771;28;20029;-77
2021/07/03 03:51:24;;;;;;;32.25;18.02;;;;;;;12.19;100.00;100821.44;5190533;28;20042;-77
2021/07/03 03:53:54;;;;;;;29.88;16.40;;;;;;;12.48;100.00;100832.50;5191936;28;20116;-76
2021/07/03 03:56:24;;;;;;;28.45;16.30;;;;;;;12.57;100.00;100824.28;5191693;28;20064;-76
2021/07/03 03:58:55;;;;;;;27.27;17.55;;;;;;;12.54;100.00;100824.41;5195178;28;20482;-77
2021/07/03 04:01:25;;;;;;;29.48;16.88;;;;;;;12.53;100.00;100816.59;5191257;28;20033;-77
2021/07/03 04:03:56;;;;;;;27.48;17.05;;;;;;;12.61;100.00;100825.03;5190866;28;20141;-76
2021/07/03 04:06:26;;;;;;;34.03;17.30;;;;;;;12.56;100.00;100830.44;5193374;28;20148;-76
2021/07/03 04:08:57;;;;;;;34.20;17.98;;;;;;;12.59;100.00;100832.94;5185181;28;20032;-77
2021/07/03 04:11:27;;;;;;;27.77;18.05;;;;;;;12.77;100.00;100841.84;5193817;28;20429;-76
2021/07/03 04:13:57;;;;;;;31.42;18.50;;;;;;;12.89;100.00;100834.34;5188229;28;20108;-77
2021/07/03 04:16:28;;;;;;;30.90;19.02;;;;;;;13.03;100.00;100839.91;5190525;28;20030;-77
2021/07/03 04:18:58;;;;;;;32.15;19.17;;;;;;;13.05;100.00;100845.94;5194480;28;20426;-76
2021/07/03 04:21:28;;;;;;;34.47;17.00;;;;;;;13.41;100.00;100832.09;5189892;28;20034;-76
2021/07/03 04:23:58;;;;;;;31.42;18.08;;;;;;;13.41;100.00;100841.78;5189616;28;20283;-77
2021/07/03 04:26:29;;;;;;;31.80;18.10;;;;;;;13.65;100.00;100851.22;5192246;28;20040;-76
2021/07/03 04:28:59;;;;;;;26.42;18.00;;;;;;;13.74;100.00;100861.31;5192901;28;20291;-76
2021/07/03 04:31:29;;;;;;;27.00;16.50;;;;;;;13.94;100.00;100859.50;5191443;28;20037;-77
2021/07/03 04:34:00;;;;;;;28.20;17.75;;;;;;;14.04;100.00;100849.44;5192250;28;20108;-77
2021/07/03 04:36:30;;;;;;;30.13;18.08;;;;;;;14.02;100.00;100843.38;5194699;28;20079;-77
2021/07/03 04:39:01;;;;;;;28.15;17.75;;;;;;;14.15;100.00;100847.19;5193296;28;20091;-77
2021/07/03 04:41:32;;;;;;;24.95;15.57;;;;;;;14.56;100.00;100843.53;5191023;28;20033;-77
2021/07/03 04:44:02;;;;;;;27.80;16.70;;;;;;;14.79;100.00;100840.63;5194337;28;20707;-77
2021/07/03 04:46:33;;;;;;;26.98;16.23;;;;;;;15.66;100.00;100840.53;5194846;28;20095;-78
2021/07/03 04:49:04;;;;;;;27.73;16.98;;;;;;;15.72;100.00;100840.22;5192527;28;20430;-77
2021/07/03 04:51:34;;;;;;;29.30;16.88;;;;;;;15.35;100.00;100837.78;5192027;28;20034;-77
2021/07/03 04:54:05;;;;;;;25.48;16.40;;;;;;;15.76;100.00;100836.50;5190009;28;20021;-77
2021/07/03 04:56:35;;;;;;;27.98;16.45;;;;;;;15.14;100.00;100835.31;5192182;28;20037;-77
2021/07/03 04:59:06;;;;;;;27.88;17.25;;;;;;;15.31;100.00;100830.97;5191820;28;20499;-77
2021/07/03 05:01:36;;;;;;;27.92;18.00;;;;;;;15.17;100.00;100830.78;5192628;28;20304;-77
2021/07/03 05:04:06;;;;;;;23.27;16.40;;;;;;;15.14;100.00;100833.56;5190822;28;20602;-78
2021/07/03 05:06:36;;;;;;;26.58;17.27;;;;;;;15.39;100.00;100823.50;5193547;28;20033;-77
2021/07/03 05:09:07;;;;;;;23.65;16.48;;;;;;;15.36;100.00;100826.31;5193872;28;20030;-78
2021/07/03 05:11:37;;;;;;;26.03;16.33;;;;;;;15.90;100.00;100819.94;5196420;28;20025;-77
2021/07/03 05:14:07;;;;;;;24.02;15.98;;;;;;;16.67;100.00;100817.41;5191655;28;20276;-77
2021/07/03 05:16:37;;;;;;;21.83;15.77;;;;;;;17.43;100.00;100817.31;5193981;28;20034;-78
2021/07/03 05:19:08;;;;;;;25.15;14.63;;;;;;;18.53;91.62;100819.22;5193800;28;20276;-77
2021/07/03 05:21:38;;;;;;;19.77;12.07;;;;;;;19.86;87.59;100808.31;5192945;28;20333;-77
2021/07/03 05:24:09;;;;;;;18.60;10.77;;;;;;;21.92;80.51;100802.50;5190225;28;20039;-78
2021/07/03 05:26:39;;;;;;;22.17;11.82;;;;;;;21.77;77.54;100803.69;5194542;28;20033;-78
2021/07/03 05:29:10;;;;;;;24.38;11.55;;;;;;;22.04;75.71;100806.00;5193349;28;20391;-78
2021/07/03 05:31:40;;;;;;;18.20;10.82;;;;;;;22.83;74.71;100807.50;5193331;28;20033;-78
2021/07/03 05:34:10;;;;;;;17.48;10.27;;;;;;;23.34;72.07;100808.53;5184547;28;20040;-78
2021/07/03 05:36:41;;;;;;;19.55;10.68;;;;;;;22.80;73.80;100807.72;5189952;28;20047;-78
2021/07/03 05:39:11;;;;;;;19.02;10.82;;;;;;;22.50;77.13;100802.25;5193185;28;20033;-78
2021/07/03 05:41:42;;;;;;;17.80;10.48;;;;;;;23.46;71.21;100807.47;5190228;28;20029;-78
2021/07/03 05:44:13;;;;;;;14.73;9.68;;;;;;;25.05;68.69;100794.03;5191065;28;20033;-78
2021/07/03 05:46:43;;;;;;;16.67;9.40;;;;;;;24.94;70.27;100797.69;5191602;28;20029;-78
2021/07/03 05:49:16;;;;;;;15.30;8.77;;;;;;;24.62;71.07;100800.75;5187410;28;20048;-78
2021/07/03 05:51:46;;;;;;;18.73;11.00;;;;;;;22.95;74.83;100806.47;5188452;28;20029;-78
2021/07/03 05:54:16;;;;;;;15.82;10.32;;;;;;;22.62;77.46;100806.56;5187258;28;20476;-78
2021/07/03 05:56:47;;;;;;;16.98;11.50;;;;;;;22.07;79.50;100805.78;5194020;28;20025;-78
2021/07/03 05:59:17;;;;;;;20.03;11.87;;;;;;;22.63;76.46;100799.44;5191484;28;20116;-77
2021/07/03 06:01:47;;;;;;;18.60;11.63;;;;;;;21.75;81.60;100796.81;5192057;28;20288;-78
2021/07/03 06:04:18;;;;;;;18.57;12.87;;;;;;;21.59;80.29;100814.88;5190425;28;20029;-78
2021/07/03 06:06:48;;;;;;;18.63;12.27;;;;;;;21.75;82.04;100804.78;5189768;28;20277;-78
2021/07/03 06:09:18;;;;;;;20.33;12.70;;;;;;;22.43;80.68;100801.03;5193603;28;20037;-77
2021/07/03 06:11:49;;;;;;;20.47;12.70;;;;;;;22.35;80.72;100797.25;5190775;28;20032;-78
2021/07/03 06:14:19;;;;;;;19.75;12.75;;;;;;;21.96;80.67;100788.00;5194220;28;20275;-77
2021/07/03 06:16:50;;;;;;;18.83;11.73;;;;;;;22.56;78.43;100790.25;5189029;28;20476;-77
2021/07/03 06:19:21;;;;;;;17.83;11.77;;;;;;;22.86;77.69;100786.75;5190547;28;20254;-77
2021/07/03 06:21:51;;;;;;;19.02;11.80;;;;;;;22.11;77.23;100783.25;5184100;28;20025;-78
2021/07/03 06:24:22;;;;;;;17.70;12.27;;;;;;;22.22;80.25;100777.94;5188651;28;20022;-78
2021/07/03 06:26:52;;;;;;;14.77;11.23;;;;;;;23.05;77.10;100776.22;5195024;28;20452;-78
2021/07/03 06:29:22;;;;;;;19.70;11.63;;;;;;;22.21;78.79;100776.22;5190545;28;20292;-78
2021/07/03 06:31:52;;;;;;;17.90;11.13;;;;;;;23.09;75.20;100772.34;5194990;28;20745;-78
2021/07/03 06:34:22;;;;;;;19.00;11.50;;;;;;;22.73;77.43;100779.88;5190153;28;20273;-78
2021/07/03 06:36:53;;;;;;;16.30;10.40;;;;;;;23.47;78.11;100769.13;5194265;28;20282;-78
2021/07/03 06:39:24;;;;;;;19.93;10.57;;;;;;;23.02;77.68;100770.34;5194206;28;20307;-79
2021/07/03 06:41:54;;;;;;;15.70;10.95;;;;;;;23.75;73.96;100771.13;5202295;28;20784;-78
2021/07/03 06:44:24;;;;;;;15.48;11.20;;;;;;;23.53;74.28;100765.94;5199852;28;20037;-78
2021/07/03 06:46:55;;;;;;;15.70;10.50;;;;;;;23.77;75.68;100772.69;5200134;28;20099;-78
2021/07/03 06:49:25;;;;;;;15.82;10.40;;;;;;;24.54;71.52;100763.16;5202295;28;20101;-78
2021/07/03 06:51:55;;;;;;;14.73;9.45;;;;;;;24.46;70.18;100762.97;5198279;28;20017;-79
2021/07/03 06:54:26;;;;;;;14.07;9.95;;;;;;;24.01;73.85;100772.41;5202725;28;20027;-78
2021/07/03 06:56:59;;;;;;;14.60;9.90;;;;;;;25.34;70.88;100774.31;5201302;28;20651;-78
2021/07/03 06:59:30;;;;;;;17.35;9.95;;;;;;;25.68;67.72;100763.97;5203179;28;20052;-78
2021/07/03 07:02:01;;;;;;;13.43;8.73;;;;;;;26.30;67.61;100765.00;5202194;28;20038;-78
2021/07/03 07:04:32;;;;;;;16.02;9.57;;;;;;;26.23;65.09;100766.59;5203759;28;20034;-78
2021/07/03 07:07:02;;;;;;;16.92;9.80;;;;;;;25.65;68.40;100770.44;5201488;28;20026;-78
2021/07/03 07:09:32;;;;;;;12.38;8.93;;;;;;;26.64;65.03;100763.38;5202585;28;20115;-78
2021/07/03 07:12:03;;;;;;;14.43;10.50;;;;;;;25.63;66.20;100769.75;5197837;28;20076;-78
2021/07/03 07:14:33;;;;;;;14.02;9.73;;;;;;;26.57;64.43;100769.50;5193081;28;20797;-78
2021/07/03 07:17:04;;;;;;;16.55;10.13;;;;;;;25.93;65.99;100771.38;5187090;28;20038;-78
2021/07/03 07:19:34;;;;;;;17.40;10.50;;;;;;;25.19;66.84;100773.09;5180411;28;20048;-77
2021/07/03 07:22:04;;;;;;;13.07;8.30;;;;;;;25.16;69.02;100769.81;5182812;28;20096;-78
2021/07/03 07:24:35;;;;;;;12.93;8.10;;;;;;;26.49;66.99;100772.94;5182881;28;20060;-79
2021/07/03 07:27:05;;;;;;;17.07;9.93;;;;;;;26.07;66.34;100768.22;5184382;28;20030;-79
2021/07/03 07:29:35;;;;;;;13.60;9.15;;;;;;;25.77;68.00;100773.78;5181886;28;20311;-79
2021/07/03 07:32:06;;;;;;;13.45;8.93;;;;;;;27.10;64.61;100760.53;5181521;28;20550;-79
2021/07/03 07:34:36;;;;;;;14.45;9.50;;;;;;;26.62;65.28;100769.88;5180086;28;20033;-79
2021/07/03 07:37:08;;;;;;;14.97;8.90;;;;;;;27.78;63.13;100763.22;5185357;28;20025;-78
2021/07/03 07:39:39;;;;;;;11.18;7.68;;;;;;;27.93;63.40;100758.94;5184790;28;20329;-78
2021/07/03 07:42:09;;;;;;;16.80;9.68;;;;;;;27.19;62.98;100752.38;5187173;28;20472;-78
2021/07/03 07:44:40;;;;;;;12.53;8.43;;;;;;;27.29;62.93;100750.41;5188582;28;20073;-79
2021/07/03 07:47:10;;;;;;;15.35;9.68;;;;;;;26.28;63.44;100750.03;5188030;28;20021;-79
2021/07/03 07:49:40;;;;;;;12.65;8.77;;;;;;;28.06;60.94;100745.91;5190244;28;20033;-78
2021/07/03 07:52:11;;;;;;;11.95;8.95;;;;;;;27.76;60.65;100741.03;5188246;28;20017;-79
2021/07/03 07:54:41;;;;;;;13.70;9.18;;;;;;;27.90;60.38;100739.59;5196905;28;20034;-79
2021/07/03 07:57:11;;;;;;;13.20;8.83;;;;;;;27.39;62.68;100735.06;5196983;28;20034;-79
2021/07/03 07:59:41;;;;;;;11.75;7.88;;;;;;;28.04;61.97;100725.53;5198017;28;20287;-79
2021/07/03 08:02:12;;;;;;;12.37;8.47;;;;;;;28.93;59.87;100726.47;5195270;28;20471;-79
2021/07/03 08:04:42;;;;;;;12.83;8.70;;;;;;;29.11;59.16;100724.47;5200179;28;20088;-79
2021/07/03 08:07:12;;;;;;;15.45;9.63;;;;;;;29.47;58.38;100733.03;5199111;28;20293;-79
2021/07/03 08:09:44;;;;;;;15.97;8.93;;;;;;;27.98;59.20;100732.41;5202051;28;20026;-79
2021/07/03 08:12:15;;;;;;;13.15;8.25;;;;;;;28.71;58.08;100731.66;5197597;28;20045;-79
2021/07/03 08:14:45;;;;;;;13.77;8.50;;;;;;;26.77;64.32;100732.50;5199003;28;20033;-79
2021/07/03 08:17:15;;;;;;;15.63;9.00;;;;;;;26.20;63.85;100739.22;5205616;28;20056;-78
2021/07/03 08:19:45;;;;;;;12.70;9.10;;;;;;;25.97;66.89;100740.63;5202762;28;20296;-78
2021/07/03 08:22:16;;;;;;;19.07;8.47;;;;;;;27.25;64.26;100735.63;5199163;28;20523;-79
2021/07/03 08:24:46;;;;;;;13.23;8.88;;;;;;;27.08;62.00;100730.28;5201243;28;20033;-79
2021/07/03 08:27:16;;;;;;;10.03;7.97;;;;;;;30.13;58.86;100728.16;5202576;28;20049;-79
2021/07/03 08:29:47;;;;;;;12.40;8.55;;;;;;;27.35;61.39;100725.66;5203471;28;20310;-79
2021/07/03 08:32:17;;;;;;;11.30;7.57;;;;;;;28.10;59.73;100725.75;5201838;28;20040;-79
2021/07/03 08:34:47;;;;;;;13.25;8.70;;;;;;;26.73;63.19;100729.44;5205245;28;20761;-78
2021/07/03 08:37:18;;;;;;;13.70;7.55;;;;;;;26.16;64.92;100727.94;5201063;28;20443;-79
2021/07/03 08:39:48;;;;;;;14.15;8.15;;;;;;;25.31;69.10;100736.31;5204407;28;20064;-77
2021/07/03 08:42:18;;;;;;;11.57;7.80;;;;;;;25.25;69.06;100736.84;5197035;28;20088;-78
2021/07/03 08:44:50;;;;;;;10.48;7.20;;;;;;;26.17;65.39;100731.50;5197074;28;20025;-78
2021/07/03 08:47:20;;;;;;;11.23;6.55;;;;;;;27.50;62.68;100723.22;5199038;28;20037;-79
2021/07/03 08:49:56;;;;;;;12.55;7.60;;;;;;;26.45;62.61;100731.31;5195687;28;20024;-78
2021/07/03 08:52:27;;;;;;;12.40;7.00;;;;;;;26.97;61.45;100728.66;5191232;28;20499;-78
2021/07/03 08:55:01;;;;;;;9.07;5.60;;;;;;;27.19;62.10;100728.22;5196563;28;20272;-78
2021/07/03 08:57:41;;;;;;;9.63;5.97;;;;;;;27.96;58.60;100726.34;5195682;28;20053;-79
2021/07/03 09:00:13;;;;;;;11.18;7.07;;;;;;;27.21;59.44;100726.22;5194536;28;20029;-79
2021/07/03 09:02:45;;;;;;;8.88;6.20;;;;;;;27.29;61.73;100720.88;5198178;28;20052;-79
2021/07/03 09:05:30;;;;;;;9.68;6.57;;;;;;;26.77;63.28;100721.78;5196397;28;20053;-79
2021/07/03 09:08:07;;;;;;;8.43;5.88;;;;;;;27.81;62.18;100725.25;5191529;28;20065;-79
2021/07/03 09:10:39;;;;;;;10.30;6.45;;;;;;;26.52;64.82;100726.22;5198097;28;20033;-79
2021/07/03 09:13:11;;;;;;;8.18;6.70;;;;;;;25.69;64.78;100720.13;5197354;28;20041;-79
2021/07/03 09:15:43;;;;;;;10.02;6.20;;;;;;;25.70;64.34;100725.31;5193394;28;20022;-78
2021/07/03 09:18:16;;;;;;;9.40;6.43;;;;;;;25.17;68.08;100726.00;5198114;28;20099;-78
2021/07/03 09:20:55;;;;;;;12.13;6.15;;;;;;;26.59;64.18;100716.56;5195122;28;20022;-77
2021/07/03 09:23:34;;;;;;;9.75;6.60;;;;;;;27.21;61.74;100710.09;5188457;28;20427;-79
2021/07/03 09:26:08;;;;;;;8.57;4.55;;;;;;;28.68;59.65;100698.84;5195041;28;20030;-79
2021/07/03 09:28:41;;;;;;;7.47;4.75;;;;;;;29.39;59.57;100706.09;5193256;28;20057;-80
2021/07/03 09:31:15;;;;;;;11.07;6.40;;;;;;;28.36;60.16;100698.78;5195551;28;20022;-79
2021/07/03 09:33:53;;;;;;;9.88;6.38;;;;;;;28.97;58.48;100700.06;5194737;28;20399;-78
2021/07/03 09:36:29;;;;;;;6.80;4.55;;;;;;;29.56;58.10;100697.81;5190816;28;20036;-78
2021/07/03 09:39:00;;;;;;;9.73;5.32;;;;;;;30.04;54.78;100700.38;5196342;28;20036;-79
2021/07/03 09:41:30;;;;;;;8.10;4.80;;;;;;;29.43;55.48;100694.78;5195336;28;20037;-78
2021/07/03 09:44:07;;;;;;;9.73;5.50;;;;;;;28.35;59.50;100707.88;5193519;28;20228;-79
2021/07/03 09:46:41;;;;;;;7.90;5.10;;;;;;;28.79;58.93;100707.44;5191673;28;20022;-79
2021/07/03 09:49:15;;;;;;;7.73;4.97;;;;;;;29.69;56.12;100697.28;5190727;28;20045;-79
2021/07/03 09:51:52;;;;;;;7.10;4.57;;;;;;;29.01;56.95;100694.19;5192253;28;20499;-78
2021/07/03 09:54:28;;;;;;;5.57;3.72;;;;;;;29.94;55.79;100691.63;5187567;28;20040;-79
2021/07/03 09:56:59;;;;;;;6.72;4.82;;;;;;;29.30;59.18;100686.41;5197666;28;20052;-79
2021/07/03 09:59:31;;;;;;;7.90;4.53;;;;;;;29.31;58.79;100688.09;5194988;28;20037;-79
2021/07/03 10:02:03;;;;;;;8.07;5.05;;;;;;;29.70;55.59;100680.09;5191710;28;20033;-80
2021/07/03 10:04:33;;;;;;;10.18;5.00;;;;;;;28.90;58.18;100683.75;5194947;28;20045;-79
2021/07/03 10:07:38;;;;;;;8.43;4.77;;;;;;;28.33;59.07;100675.75;5188284;28;20076;-80
2021/07/03 10:10:13;;;;;;;7.55;4.82;;;;;;;29.43;57.84;100667.84;5185531;28;20284;-81
2021/07/03 10:12:49;;;;;;;8.70;4.85;;;;;;;28.83;58.16;100673.78;5198093;28;20025;-79
2021/07/03 10:15:33;;;;;;;7.20;4.57;;;;;;;28.14;56.98;100667.13;5190754;28;20103;-78
2021/07/03 10:18:09;;;;;;;6.53;4.87;;;;;;;27.37;59.75;100678.00;5193039;28;20419;-78
2021/07/03 10:20:41;;;;;;;8.13;5.03;;;;;;;28.02;59.78;100668.41;5191075;28;20060;-79
2021/07/03 10:23:12;;;;;;;8.27;5.28;;;;;;;27.50;59.30;100670.34;5187828;28;20033;-79
2021/07/03 10:25:45;;;;;;;8.35;5.22;;;;;;;27.47;62.97;100662.59;5194291;28;20045;-78
2021/07/03 10:28:17;;;;;;;10.15;6.03;;;;;;;26.60;62.09;100664.59;5191892;28;20390;-78
2021/07/03 10:30:49;;;;;;;11.75;6.03;;;;;;;26.74;63.17;100665.75;5195365;28;20099;-78
2021/07/03 10:33:22;;;;;;;8.98;5.78;;;;;;;26.09;62.60;100659.03;5191370;28;20292;-77
2021/07/03 10:35:55;;;;;;;8.25;4.70;;;;;;;26.38;63.45;100665.88;5187307;28;20091;-78
2021/07/03 10:38:27;;;;;;;8.90;5.13;;;;;;;26.14;63.48;100659.44;5188619;28;20093;-78
2021/07/03 10:41:13;;;;;;;9.20;5.28;;;;;;;26.03;67.75;100656.97;5195568;28;20033;-78
2021/07/03 10:43:49;;;;;;;8.88;5.20;;;;;;;25.96;65.55;100655.84;5191091;28;20017;-78
2021/07/03 10:46:33;;;;;;;9.27;5.30;;;;;;;26.05;66.60;100657.66;5190714;28;20368;-78
2021/07/03 10:49:09;;;;;;;8.52;5.88;;;;;;;25.05;65.47;100663.78;5193468;28;20091;-78
2021/07/03 10:51:42;;;;;;;8.32;5.28;;;;;;;25.67;64.17;100653.31;5185267;28;20117;-77
2021/07/03 10:54:12;;;;;;;7.20;4.93;;;;;;;26.25;64.57;100645.78;5190085;28;20041;-78
2021/07/03 10:56:50;;;;;;;8.10;5.43;;;;;;;26.47;65.41;100650.69;5193891;28;20045;-78
2021/07/03 10:59:24;;;;;;;7.63;5.32;;;;;;;26.35;68.14;100641.22;5195136;28;20298;-79
2021/07/03 11:02:06;;;;;;;7.75;5.18;;;;;;;25.82;66.00;100645.63;5189039;28;20107;-78
2021/07/03 11:04:50;;;;;;;8.88;5.05;;;;;;;25.42;66.12;100643.28;5188488;28;20050;-78
2021/07/03 11:07:32;;;;;;;9.50;5.38;;;;;;;24.93;67.11;100643.53;5194137;28;20037;-77
2021/07/03 11:10:06;;;;;;;6.50;4.95;;;;;;;25.10;66.15;100641.94;5192620;28;20030;-77
2021/07/03 11:12:52;;;;;;;6.72;4.57;;;;;;;24.90;65.67;100642.97;5193534;28;20064;-78
2021/07/03 11:15:24;;;;;;;8.88;5.30;;;;;;;24.86;64.98;100645.09;5185646;28;20033;-78
2021/07/03 11:17:56;;;;;;;6.50;4.70;;;;;;;25.05;63.68;100638.84;5194852;28;20097;-79
2021/07/03 11:20:36;;;;;;;8.07;4.90;;;;;;;25.02;65.89;100645.34;5192240;28;20061;-78
2021/07/03 11:23:07;;;;;;;7.40;5.30;;;;;;;24.65;66.52;100640.03;5188047;28;20030;-78
2021/07/03 11:25:41;;;;;;;6.15;4.65;;;;;;;24.92;66.69;100632.97;5194329;28;20025;-79
2021/07/03 11:28:19;;;;;;;7.28;5.00;;;;;;;25.30;66.51;100632.91;5194857;28;20033;-78
2021/07/03 11:31:01;;;;;;;9.25;4.90;;;;;;;25.78;66.94;100625.47;5195636;28;20025;-78